sensor_id;sensor_type;location;lat;lon;timestamp;P1;durP1;ratioP1;P2;durP2;ratioP2
40955;SDS011;26687;48.254;11.454;2024-02-26T00:00:24;9.67;;;8.77;;
40955;SDS011;26687;48.254;11.454;2024-02-26T00:03:25;9.05;;;7.85;;
40955;SDS011;26687;48.254;11.454;2024-02-26T00:06:25;9.00;;;8.10;;
40955;SDS011;26687;48.254;11.454;2024-02-26T00:09:25;8.95;;;8.10;;
40955;SDS011;26687;48.254;11.454;2024-02-26T00:12:25;8.10;;;7.25;;
40955;SDS011;26687;48.254;11.454;2024-02-26T00:15:25;8.97;;;7.80;;
40955;SDS011;26687;48.254;11.454;2024-02-26T00:18:27;8.52;;;7.60;;
40955;SDS011;26687;48.254;11.454;2024-02-26T00:21:27;8.83;;;8.03;;
40955;SDS011;26687;48.254;11.454;2024-02-26T00:24:28;9.50;;;8.60;;
40955;SDS011;26687;48.254;11.454;2024-02-26T00:27:28;8.82;;;8.02;;
40955;SDS011;26687;48.254;11.454;2024-02-26T00:30:28;9.60;;;8.70;;
40955;SDS011;26687;48.254;11.454;2024-02-26T00:33:28;9.88;;;8.88;;
40955;SDS011;26687;48.254;11.454;2024-02-26T00:36:29;9.20;;;8.40;;
40955;SDS011;26687;48.254;11.454;2024-02-26T00:39:29;9.65;;;8.70;;
40955;SDS011;26687;48.254;11.454;2024-02-26T00:42:29;9.00;;;8.10;;
40955;SDS011;26687;48.254;11.454;2024-02-26T00:45:29;10.60;;;8.35;;
40955;SDS011;26687;48.254;11.454;2024-02-26T00:48:29;10.32;;;9.43;;
40955;SDS011;26687;48.254;11.454;2024-02-26T00:51:30;10.05;;;9.15;;
40955;SDS011;26687;48.254;11.454;2024-02-26T00:54:31;9.95;;;9.07;;
40955;SDS011;26687;48.254;11.454;2024-02-26T00:57:31;10.32;;;9.18;;
40955;SDS011;26687;48.254;11.454;2024-02-26T01:00:31;9.15;;;8.27;;
40955;SDS011;26687;48.254;11.454;2024-02-26T01:03:31;10.23;;;9.32;;
40955;SDS011;26687;48.254;11.454;2024-02-26T01:06:31;10.35;;;9.35;;
40955;SDS011;26687;48.254;11.454;2024-02-26T01:09:31;11.00;;;10.00;;
40955;SDS011;26687;48.254;11.454;2024-02-26T01:12:32;10.25;;;9.35;;
40955;SDS011;26687;48.254;11.454;2024-02-26T01:15:32;10.77;;;9.77;;
40955;SDS011;26687;48.254;11.454;2024-02-26T01:18:32;11.55;;;10.05;;
40955;SDS011;26687;48.254;11.454;2024-02-26T01:21:32;11.00;;;9.90;;
40955;SDS011;26687;48.254;11.454;2024-02-26T01:24:33;10.47;;;9.47;;
40955;SDS011;26687;48.254;11.454;2024-02-26T01:27:33;11.63;;;10.45;;
40955;SDS011;26687;48.254;11.454;2024-02-26T01:30:33;10.95;;;9.95;;
40955;SDS011;26687;48.254;11.454;2024-02-26T01:33:33;10.02;;;8.95;;
40955;SDS011;26687;48.254;11.454;2024-02-26T01:36:33;10.10;;;9.00;;
40955;SDS011;26687;48.254;11.454;2024-02-26T01:39:34;10.18;;;9.18;;
40955;SDS011;26687;48.254;11.454;2024-02-26T01:42:35;11.35;;;9.48;;
40955;SDS011;26687;48.254;11.454;2024-02-26T01:45:37;11.13;;;9.05;;
40955;SDS011;26687;48.254;11.454;2024-02-26T01:48:38;10.45;;;9.45;;
40955;SDS011;26687;48.254;11.454;2024-02-26T01:51:38;9.25;;;8.40;;
40955;SDS011;26687;48.254;11.454;2024-02-26T01:54:39;9.95;;;8.80;;
40955;SDS011;26687;48.254;11.454;2024-02-26T01:57:41;9.98;;;8.98;;
40955;SDS011;26687;48.254;11.454;2024-02-26T02:00:42;9.40;;;8.50;;
40955;SDS011;26687;48.254;11.454;2024-02-26T02:03:42;10.55;;;8.90;;
40955;SDS011;26687;48.254;11.454;2024-02-26T02:06:43;9.90;;;8.90;;
40955;SDS011;26687;48.254;11.454;2024-02-26T02:09:45;10.05;;;9.00;;
40955;SDS011;26687;48.254;11.454;2024-02-26T02:12:45;9.30;;;8.43;;
40955;SDS011;26687;48.254;11.454;2024-02-26T02:15:45;10.27;;;9.17;;
40955;SDS011;26687;48.254;11.454;2024-02-26T02:18:46;9.55;;;8.60;;
40955;SDS011;26687;48.254;11.454;2024-02-26T02:21:46;9.63;;;8.70;;
40955;SDS011;26687;48.254;11.454;2024-02-26T02:24:46;9.52;;;8.63;;
40955;SDS011;26687;48.254;11.454;2024-02-26T02:27:47;9.27;;;8.38;;
40955;SDS011;26687;48.254;11.454;2024-02-26T02:30:47;9.30;;;8.50;;
40955;SDS011;26687;48.254;11.454;2024-02-26T02:33:48;9.15;;;8.35;;
40955;SDS011;26687;48.254;11.454;2024-02-26T02:36:49;10.40;;;8.70;;
40955;SDS011;26687;48.254;11.454;2024-02-26T02:39:49;9.90;;;8.90;;
40955;SDS011;26687;48.254;11.454;2024-02-26T02:42:49;10.25;;;9.25;;
40955;SDS011;26687;48.254;11.454;2024-02-26T02:45:50;10.85;;;9.85;;
40955;SDS011;26687;48.254;11.454;2024-02-26T02:48:50;9.95;;;8.95;;
40955;SDS011;26687;48.254;11.454;2024-02-26T02:51:50;10.77;;;9.77;;
40955;SDS011;26687;48.254;11.454;2024-02-26T02:54:50;10.45;;;9.45;;
40955;SDS011;26687;48.254;11.454;2024-02-26T02:57:50;9.93;;;9.02;;
40955;SDS011;26687;48.254;11.454;2024-02-26T03:00:50;10.63;;;9.52;;
40955;SDS011;26687;48.254;11.454;2024-02-26T03:03:51;10.55;;;9.55;;
40955;SDS011;26687;48.254;11.454;2024-02-26T03:06:51;11.67;;;10.57;;
40955;SDS011;26687;48.254;11.454;2024-02-26T03:09:51;11.82;;;10.73;;
40955;SDS011;26687;48.254;11.454;2024-02-26T03:12:51;12.52;;;11.30;;
40955;SDS011;26687;48.254;11.454;2024-02-26T03:15:51;11.65;;;10.55;;
40955;SDS011;26687;48.254;11.454;2024-02-26T03:18:52;11.40;;;10.40;;
40955;SDS011;26687;48.254;11.454;2024-02-26T03:21:52;12.23;;;11.02;;
40955;SDS011;26687;48.254;11.454;2024-02-26T03:24:52;12.52;;;11.25;;
40955;SDS011;26687;48.254;11.454;2024-02-26T03:27:52;12.27;;;10.97;;
40955;SDS011;26687;48.254;11.454;2024-02-26T03:30:52;12.15;;;10.57;;
40955;SDS011;26687;48.254;11.454;2024-02-26T03:33:52;11.55;;;10.45;;
40955;SDS011;26687;48.254;11.454;2024-02-26T03:36:52;12.63;;;11.35;;
40955;SDS011;26687;48.254;11.454;2024-02-26T03:39:53;12.63;;;11.43;;
40955;SDS011;26687;48.254;11.454;2024-02-26T03:42:53;12.73;;;11.52;;
40955;SDS011;26687;48.254;11.454;2024-02-26T03:45:54;11.88;;;10.68;;
40955;SDS011;26687;48.254;11.454;2024-02-26T03:48:54;12.43;;;11.23;;
40955;SDS011;26687;48.254;11.454;2024-02-26T03:51:54;11.85;;;10.75;;
40955;SDS011;26687;48.254;11.454;2024-02-26T03:54:54;12.32;;;11.13;;
40955;SDS011;26687;48.254;11.454;2024-02-26T03:57:54;12.13;;;11.02;;
40955;SDS011;26687;48.254;11.454;2024-02-26T04:00:54;12.05;;;10.95;;
40955;SDS011;26687;48.254;11.454;2024-02-26T04:03:55;11.23;;;10.23;;
40955;SDS011;26687;48.254;11.454;2024-02-26T04:06:55;11.50;;;10.40;;
40955;SDS011;26687;48.254;11.454;2024-02-26T04:09:55;10.87;;;9.90;;
40955;SDS011;26687;48.254;11.454;2024-02-26T04:12:55;11.65;;;10.55;;
40955;SDS011;26687;48.254;11.454;2024-02-26T04:15:55;10.93;;;9.93;;
40955;SDS011;26687;48.254;11.454;2024-02-26T04:18:56;11.43;;;10.38;;
40955;SDS011;26687;48.254;11.454;2024-02-26T04:21:56;10.63;;;9.63;;
40955;SDS011;26687;48.254;11.454;2024-02-26T04:24:56;10.70;;;9.60;;
40955;SDS011;26687;48.254;11.454;2024-02-26T04:27:56;11.52;;;10.40;;
40955;SDS011;26687;48.254;11.454;2024-02-26T04:30:56;10.77;;;9.77;;
40955;SDS011;26687;48.254;11.454;2024-02-26T04:33:57;10.23;;;9.23;;
40955;SDS011;26687;48.254;11.454;2024-02-26T04:36:57;10.65;;;9.65;;
40955;SDS011;26687;48.254;11.454;2024-02-26T04:39:58;10.75;;;9.75;;
40955;SDS011;26687;48.254;11.454;2024-02-26T04:42:58;10.55;;;9.45;;
40955;SDS011;26687;48.254;11.454;2024-02-26T04:45:58;10.57;;;9.57;;
40955;SDS011;26687;48.254;11.454;2024-02-26T04:48:59;10.43;;;9.43;;
40955;SDS011;26687;48.254;11.454;2024-02-26T04:51:59;10.50;;;9.47;;
40955;SDS011;26687;48.254;11.454;2024-02-26T04:54:59;10.23;;;9.30;;
40955;SDS011;26687;48.254;11.454;2024-02-26T04:58:00;10.70;;;9.65;;
40955;SDS011;26687;48.254;11.454;2024-02-26T05:01:00;10.40;;;9.40;;
40955;SDS011;26687;48.254;11.454;2024-02-26T05:04:00;9.63;;;8.73;;
40955;SDS011;26687;48.254;11.454;2024-02-26T05:07:00;10.35;;;9.45;;
40955;SDS011;26687;48.254;11.454;2024-02-26T05:10:00;10.60;;;9.70;;
40955;SDS011;26687;48.254;11.454;2024-02-26T05:13:00;10.10;;;9.10;;
40955;SDS011;26687;48.254;11.454;2024-02-26T05:16:01;10.13;;;9.23;;
40955;SDS011;26687;48.254;11.454;2024-02-26T05:19:01;9.60;;;8.70;;
40955;SDS011;26687;48.254;11.454;2024-02-26T05:22:02;10.13;;;9.23;;
40955;SDS011;26687;48.254;11.454;2024-02-26T05:25:03;10.37;;;9.37;;
40955;SDS011;26687;48.254;11.454;2024-02-26T05:28:03;9.98;;;8.95;;
40955;SDS011;26687;48.254;11.454;2024-02-26T05:31:04;9.45;;;8.60;;
40955;SDS011;26687;48.254;11.454;2024-02-26T05:34:04;10.23;;;9.23;;
40955;SDS011;26687;48.254;11.454;2024-02-26T05:37:04;9.33;;;8.43;;
40955;SDS011;26687;48.254;11.454;2024-02-26T05:40:05;10.57;;;9.50;;
40955;SDS011;26687;48.254;11.454;2024-02-26T05:43:05;10.13;;;9.05;;
40955;SDS011;26687;48.254;11.454;2024-02-26T05:46:06;9.93;;;9.03;;
40955;SDS011;26687;48.254;11.454;2024-02-26T05:49:06;10.23;;;9.20;;
40955;SDS011;26687;48.254;11.454;2024-02-26T05:52:07;10.10;;;9.10;;
40955;SDS011;26687;48.254;11.454;2024-02-26T05:55:07;12.15;;;8.30;;
40955;SDS011;26687;48.254;11.454;2024-02-26T05:58:07;11.07;;;9.05;;
40955;SDS011;26687;48.254;11.454;2024-02-26T06:01:08;10.40;;;9.40;;
40955;SDS011;26687;48.254;11.454;2024-02-26T06:04:08;9.15;;;8.27;;
40955;SDS011;26687;48.254;11.454;2024-02-26T06:07:08;10.70;;;9.53;;
40955;SDS011;26687;48.254;11.454;2024-02-26T06:10:08;12.05;;;9.82;;
40955;SDS011;26687;48.254;11.454;2024-02-26T06:13:09;11.13;;;10.13;;
40955;SDS011;26687;48.254;11.454;2024-02-26T06:16:09;11.00;;;10.00;;
40955;SDS011;26687;48.254;11.454;2024-02-26T06:19:09;11.25;;;10.20;;
40955;SDS011;26687;48.254;11.454;2024-02-26T06:22:09;10.35;;;9.43;;
40955;SDS011;26687;48.254;11.454;2024-02-26T06:25:09;10.50;;;9.50;;
40955;SDS011;26687;48.254;11.454;2024-02-26T06:28:10;11.50;;;10.38;;
40955;SDS011;26687;48.254;11.454;2024-02-26T06:31:10;10.43;;;9.43;;
40955;SDS011;26687;48.254;11.454;2024-02-26T06:34:10;10.43;;;9.30;;
40955;SDS011;26687;48.254;11.454;2024-02-26T06:37:11;10.10;;;9.10;;
40955;SDS011;26687;48.254;11.454;2024-02-26T06:40:11;13.63;;;12.23;;
40955;SDS011;26687;48.254;11.454;2024-02-26T06:43:12;12.87;;;11.57;;
40955;SDS011;26687;48.254;11.454;2024-02-26T06:46:12;10.57;;;9.57;;
40955;SDS011;26687;48.254;11.454;2024-02-26T06:49:12;10.77;;;9.77;;
40955;SDS011;26687;48.254;11.454;2024-02-26T06:52:12;10.47;;;9.40;;
40955;SDS011;26687;48.254;11.454;2024-02-26T06:55:12;11.02;;;10.02;;
40955;SDS011;26687;48.254;11.454;2024-02-26T06:58:13;12.70;;;11.48;;
40955;SDS011;26687;48.254;11.454;2024-02-26T07:01:14;12.95;;;11.65;;
40955;SDS011;26687;48.254;11.454;2024-02-26T07:04:14;11.85;;;10.60;;
40955;SDS011;26687;48.254;11.454;2024-02-26T07:07:14;14.03;;;12.63;;
40955;SDS011;26687;48.254;11.454;2024-02-26T07:10:14;14.15;;;12.60;;
40955;SDS011;26687;48.254;11.454;2024-02-26T07:13:15;13.33;;;9.97;;
40955;SDS011;26687;48.254;11.454;2024-02-26T07:16:15;12.05;;;10.85;;
40955;SDS011;26687;48.254;11.454;2024-02-26T07:19:15;12.73;;;11.45;;
40955;SDS011;26687;48.254;11.454;2024-02-26T07:22:15;11.65;;;10.40;;
40955;SDS011;26687;48.254;11.454;2024-02-26T07:25:16;10.82;;;9.73;;
40955;SDS011;26687;48.254;11.454;2024-02-26T07:28:16;11.45;;;10.35;;
40955;SDS011;26687;48.254;11.454;2024-02-26T07:31:17;11.03;;;10.03;;
40955;SDS011;26687;48.254;11.454;2024-02-26T07:34:17;10.73;;;9.65;;
40955;SDS011;26687;48.254;11.454;2024-02-26T07:37:18;12.57;;;10.50;;
40955;SDS011;26687;48.254;11.454;2024-02-26T07:40:18;10.88;;;9.82;;
40955;SDS011;26687;48.254;11.454;2024-02-26T07:43:18;10.65;;;9.65;;
40955;SDS011;26687;48.254;11.454;2024-02-26T07:46:18;10.60;;;8.90;;
40955;SDS011;26687;48.254;11.454;2024-02-26T07:49:19;10.13;;;9.23;;
40955;SDS011;26687;48.254;11.454;2024-02-26T07:52:19;10.15;;;9.05;;
40955;SDS011;26687;48.254;11.454;2024-02-26T07:55:19;10.10;;;9.15;;
40955;SDS011;26687;48.254;11.454;2024-02-26T07:58:19;10.20;;;9.20;;
40955;SDS011;26687;48.254;11.454;2024-02-26T08:01:19;11.00;;;9.90;;
40955;SDS011;26687;48.254;11.454;2024-02-26T08:04:19;13.07;;;9.77;;
40955;SDS011;26687;48.254;11.454;2024-02-26T08:07:20;10.30;;;8.67;;
40955;SDS011;26687;48.254;11.454;2024-02-26T08:13:23;10.00;;;9.00;;
40955;SDS011;26687;48.254;11.454;2024-02-26T08:16:24;10.38;;;8.80;;
40955;SDS011;26687;48.254;11.454;2024-02-26T08:19:24;11.13;;;9.13;;
40955;SDS011;26687;48.254;11.454;2024-02-26T08:22:24;10.40;;;9.35;;
40955;SDS011;26687;48.254;11.454;2024-02-26T08:25:24;10.63;;;9.50;;
40955;SDS011;26687;48.254;11.454;2024-02-26T08:28:25;10.27;;;9.18;;
40955;SDS011;26687;48.254;11.454;2024-02-26T08:31:25;9.63;;;8.73;;
40955;SDS011;26687;48.254;11.454;2024-02-26T08:34:27;9.77;;;8.77;;
40955;SDS011;26687;48.254;11.454;2024-02-26T08:37:27;9.82;;;8.82;;
40955;SDS011;26687;48.254;11.454;2024-02-26T08:40:27;10.65;;;8.50;;
40955;SDS011;26687;48.254;11.454;2024-02-26T08:43:27;10.00;;;9.03;;
40955;SDS011;26687;48.254;11.454;2024-02-26T08:46:27;9.75;;;8.82;;
40955;SDS011;26687;48.254;11.454;2024-02-26T08:49:27;10.00;;;8.93;;
40955;SDS011;26687;48.254;11.454;2024-02-26T08:52:28;9.30;;;8.50;;
40955;SDS011;26687;48.254;11.454;2024-02-26T08:55:28;10.02;;;8.60;;
40955;SDS011;26687;48.254;11.454;2024-02-26T08:58:28;9.60;;;8.60;;
40955;SDS011;26687;48.254;11.454;2024-02-26T09:01:28;12.43;;;10.13;;
40955;SDS011;26687;48.254;11.454;2024-02-26T09:04:29;9.73;;;8.73;;
40955;SDS011;26687;48.254;11.454;2024-02-26T09:07:29;9.52;;;8.57;;
40955;SDS011;26687;48.254;11.454;2024-02-26T09:10:29;9.00;;;8.10;;
40955;SDS011;26687;48.254;11.454;2024-02-26T09:13:29;8.35;;;7.55;;
40955;SDS011;26687;48.254;11.454;2024-02-26T09:16:29;7.75;;;6.95;;
40955;SDS011;26687;48.254;11.454;2024-02-26T09:19:30;7.00;;;6.25;;
40955;SDS011;26687;48.254;11.454;2024-02-26T09:22:30;7.65;;;6.95;;
40955;SDS011;26687;48.254;11.454;2024-02-26T09:25:30;8.45;;;6.90;;
40955;SDS011;26687;48.254;11.454;2024-02-26T09:28:30;7.38;;;6.68;;
40955;SDS011;26687;48.254;11.454;2024-02-26T09:31:34;6.95;;;6.05;;
40955;SDS011;26687;48.254;11.454;2024-02-26T09:34:35;7.27;;;6.57;;
40955;SDS011;26687;48.254;11.454;2024-02-26T09:37:35;7.45;;;6.70;;
40955;SDS011;26687;48.254;11.454;2024-02-26T09:40:36;7.82;;;6.28;;
40955;SDS011;26687;48.254;11.454;2024-02-26T09:43:37;7.13;;;6.43;;
40955;SDS011;26687;48.254;11.454;2024-02-26T09:46:39;6.65;;;6.03;;
40955;SDS011;26687;48.254;11.454;2024-02-26T09:49:39;7.03;;;5.90;;
40955;SDS011;26687;48.254;11.454;2024-02-26T09:52:41;7.33;;;6.10;;
40955;SDS011;26687;48.254;11.454;2024-02-26T09:55:41;6.78;;;5.63;;
40955;SDS011;26687;48.254;11.454;2024-02-26T09:58:41;7.15;;;6.25;;
40955;SDS011;26687;48.254;11.454;2024-02-26T10:01:42;5.10;;;4.70;;
40955;SDS011;26687;48.254;11.454;2024-02-26T10:04:44;5.72;;;4.85;;
40955;SDS011;26687;48.254;11.454;2024-02-26T10:07:46;5.38;;;4.22;;
40955;SDS011;26687;48.254;11.454;2024-02-26T10:10:47;5.22;;;4.78;;
40955;SDS011;26687;48.254;11.454;2024-02-26T10:13:47;5.15;;;4.65;;
40955;SDS011;26687;48.254;11.454;2024-02-26T10:16:47;7.32;;;4.47;;
40955;SDS011;26687;48.254;11.454;2024-02-26T10:19:47;5.75;;;3.92;;
40955;SDS011;26687;48.254;11.454;2024-02-26T10:22:47;6.55;;;4.10;;
40955;SDS011;26687;48.254;11.454;2024-02-26T10:25:54;4.57;;;4.15;;
40955;SDS011;26687;48.254;11.454;2024-02-26T10:28:55;3.95;;;3.60;;
40955;SDS011;26687;48.254;11.454;2024-02-26T10:31:59;5.60;;;3.60;;
40955;SDS011;26687;48.254;11.454;2024-02-26T10:34:59;3.93;;;3.60;;
40955;SDS011;26687;48.254;11.454;2024-02-26T10:37:59;5.03;;;3.85;;
40955;SDS011;26687;48.254;11.454;2024-02-26T10:41:01;4.00;;;3.20;;
40955;SDS011;26687;48.254;11.454;2024-02-26T10:44:01;3.75;;;3.10;;
40955;SDS011;26687;48.254;11.454;2024-02-26T10:47:01;3.83;;;2.85;;
40955;SDS011;26687;48.254;11.454;2024-02-26T10:50:02;4.10;;;2.33;;
40955;SDS011;26687;48.254;11.454;2024-02-26T10:53:03;2.38;;;2.10;;
40955;SDS011;26687;48.254;11.454;2024-02-26T10:56:05;3.20;;;2.50;;
40955;SDS011;26687;48.254;11.454;2024-02-26T10:59:05;3.20;;;2.50;;
40955;SDS011;26687;48.254;11.454;2024-02-26T11:02:07;4.05;;;2.88;;
40955;SDS011;26687;48.254;11.454;2024-02-26T11:05:09;3.33;;;3.03;;
40955;SDS011;26687;48.254;11.454;2024-02-26T11:08:11;3.22;;;2.83;;
40955;SDS011;26687;48.254;11.454;2024-02-26T11:11:11;3.17;;;2.88;;
40955;SDS011;26687;48.254;11.454;2024-02-26T11:14:15;3.78;;;2.75;;
40955;SDS011;26687;48.254;11.454;2024-02-26T11:17:16;2.60;;;2.40;;
40955;SDS011;26687;48.254;11.454;2024-02-26T11:20:17;2.85;;;2.28;;
40955;SDS011;26687;48.254;11.454;2024-02-26T11:23:17;2.50;;;2.28;;
40955;SDS011;26687;48.254;11.454;2024-02-26T11:26:17;3.17;;;2.70;;
40955;SDS011;26687;48.254;11.454;2024-02-26T11:29:20;2.72;;;2.53;;
40955;SDS011;26687;48.254;11.454;2024-02-26T11:32:20;4.07;;;3.00;;
40955;SDS011;26687;48.254;11.454;2024-02-26T11:35:21;1.97;;;1.80;;
40955;SDS011;26687;48.254;11.454;2024-02-26T11:38:21;3.30;;;2.15;;
40955;SDS011;26687;48.254;11.454;2024-02-26T11:41:22;3.15;;;1.90;;
40955;SDS011;26687;48.254;11.454;2024-02-26T11:44:31;2.23;;;2.03;;
40955;SDS011;26687;48.254;11.454;2024-02-26T11:47:31;2.00;;;1.52;;
40955;SDS011;26687;48.254;11.454;2024-02-26T11:53:34;2.08;;;1.77;;
40955;SDS011;26687;48.254;11.454;2024-02-26T11:56:40;2.80;;;1.60;;
40955;SDS011;26687;48.254;11.454;2024-02-26T11:59:41;5.38;;;2.58;;
40955;SDS011;26687;48.254;11.454;2024-02-26T12:02:45;2.20;;;1.42;;
40955;SDS011;26687;48.254;11.454;2024-02-26T12:05:45;1.70;;;1.60;;
40955;SDS011;26687;48.254;11.454;2024-02-26T12:08:46;2.28;;;1.35;;
40955;SDS011;26687;48.254;11.454;2024-02-26T12:11:46;2.60;;;1.45;;
40955;SDS011;26687;48.254;11.454;2024-02-26T12:14:51;2.08;;;1.65;;
40955;SDS011;26687;48.254;11.454;2024-02-26T12:17:54;1.50;;;1.40;;
40955;SDS011;26687;48.254;11.454;2024-02-26T12:20:57;1.53;;;1.30;;
40955;SDS011;26687;48.254;11.454;2024-02-26T12:24:06;2.55;;;1.67;;
40955;SDS011;26687;48.254;11.454;2024-02-26T12:27:06;3.22;;;2.00;;
40955;SDS011;26687;48.254;11.454;2024-02-26T12:30:06;3.25;;;2.00;;
40955;SDS011;26687;48.254;11.454;2024-02-26T12:33:07;2.63;;;1.60;;
40955;SDS011;26687;48.254;11.454;2024-02-26T12:36:08;3.55;;;1.50;;
40955;SDS011;26687;48.254;11.454;2024-02-26T12:39:08;2.43;;;1.83;;
40955;SDS011;26687;48.254;11.454;2024-02-26T12:42:09;1.35;;;1.25;;
40955;SDS011;26687;48.254;11.454;2024-02-26T12:45:10;2.70;;;2.00;;
40955;SDS011;26687;48.254;11.454;2024-02-26T12:48:12;1.90;;;1.80;;
40955;SDS011;26687;48.254;11.454;2024-02-26T12:51:12;2.78;;;1.83;;
40955;SDS011;26687;48.254;11.454;2024-02-26T12:54:13;2.30;;;1.98;;
40955;SDS011;26687;48.254;11.454;2024-02-26T12:57:14;1.60;;;1.50;;
40955;SDS011;26687;48.254;11.454;2024-02-26T13:00:16;2.65;;;1.67;;
40955;SDS011;26687;48.254;11.454;2024-02-26T13:03:16;3.73;;;2.07;;
40955;SDS011;26687;48.254;11.454;2024-02-26T13:06:17;2.10;;;1.90;;
40955;SDS011;26687;48.254;11.454;2024-02-26T13:09:18;2.22;;;2.03;;
40955;SDS011;26687;48.254;11.454;2024-02-26T13:12:19;2.00;;;1.77;;
40955;SDS011;26687;48.254;11.454;2024-02-26T13:15:20;1.73;;;1.63;;
40955;SDS011;26687;48.254;11.454;2024-02-26T13:18:21;1.80;;;1.70;;
40955;SDS011;26687;48.254;11.454;2024-02-26T13:21:21;2.30;;;1.75;;
40955;SDS011;26687;48.254;11.454;2024-02-26T13:24:24;2.05;;;1.90;;
40955;SDS011;26687;48.254;11.454;2024-02-26T13:27:25;1.92;;;1.67;;
40955;SDS011;26687;48.254;11.454;2024-02-26T13:30:26;2.55;;;1.60;;
40955;SDS011;26687;48.254;11.454;2024-02-26T13:33:28;2.20;;;1.98;;
40955;SDS011;26687;48.254;11.454;2024-02-26T13:36:29;2.28;;;1.50;;
40955;SDS011;26687;48.254;11.454;2024-02-26T13:39:29;1.97;;;1.47;;
40955;SDS011;26687;48.254;11.454;2024-02-26T13:42:30;1.92;;;1.60;;
40955;SDS011;26687;48.254;11.454;2024-02-26T13:45:30;1.40;;;1.30;;
40955;SDS011;26687;48.254;11.454;2024-02-26T13:48:31;1.35;;;1.10;;
40955;SDS011;26687;48.254;11.454;2024-02-26T13:51:31;2.20;;;1.40;;
40955;SDS011;26687;48.254;11.454;2024-02-26T13:54:35;1.30;;;1.20;;
40955;SDS011;26687;48.254;11.454;2024-02-26T13:57:35;2.43;;;1.57;;
40955;SDS011;26687;48.254;11.454;2024-02-26T14:00:35;1.35;;;1.25;;
40955;SDS011;26687;48.254;11.454;2024-02-26T14:03:35;1.30;;;1.20;;
40955;SDS011;26687;48.254;11.454;2024-02-26T14:06:35;1.53;;;1.30;;
40955;SDS011;26687;48.254;11.454;2024-02-26T14:09:36;1.20;;;1.00;;
40955;SDS011;26687;48.254;11.454;2024-02-26T14:12:36;1.47;;;1.00;;
40955;SDS011;26687;48.254;11.454;2024-02-26T14:15:36;3.15;;;1.90;;
40955;SDS011;26687;48.254;11.454;2024-02-26T14:18:38;2.10;;;1.40;;
40955;SDS011;26687;48.254;11.454;2024-02-26T14:21:38;1.65;;;1.52;;
40955;SDS011;26687;48.254;11.454;2024-02-26T14:24:39;2.83;;;1.80;;
40955;SDS011;26687;48.254;11.454;2024-02-26T14:27:42;1.33;;;1.20;;
40955;SDS011;26687;48.254;11.454;2024-02-26T14:30:42;2.67;;;2.27;;
40955;SDS011;26687;48.254;11.454;2024-02-26T14:33:44;2.42;;;1.70;;
40955;SDS011;26687;48.254;11.454;2024-02-26T14:36:44;2.05;;;1.60;;
40955;SDS011;26687;48.254;11.454;2024-02-26T14:39:44;2.65;;;1.00;;
40955;SDS011;26687;48.254;11.454;2024-02-26T14:42:45;2.83;;;1.17;;
40955;SDS011;26687;48.254;11.454;2024-02-26T14:45:45;3.00;;;1.33;;
40955;SDS011;26687;48.254;11.454;2024-02-26T14:48:46;2.05;;;1.60;;
40955;SDS011;26687;48.254;11.454;2024-02-26T14:51:46;2.00;;;1.50;;
40955;SDS011;26687;48.254;11.454;2024-02-26T14:54:46;2.33;;;1.93;;
40955;SDS011;26687;48.254;11.454;2024-02-26T14:57:46;2.33;;;1.60;;
40955;SDS011;26687;48.254;11.454;2024-02-26T15:00:46;2.17;;;1.17;;
40955;SDS011;26687;48.254;11.454;2024-02-26T15:03:47;1.52;;;1.42;;
40955;SDS011;26687;48.254;11.454;2024-02-26T15:06:47;2.60;;;2.03;;
40955;SDS011;26687;48.254;11.454;2024-02-26T15:09:48;4.05;;;3.00;;
40955;SDS011;26687;48.254;11.454;2024-02-26T15:12:48;3.40;;;2.47;;
40955;SDS011;26687;48.254;11.454;2024-02-26T15:15:48;3.43;;;2.30;;
40955;SDS011;26687;48.254;11.454;2024-02-26T15:18:48;2.55;;;1.63;;
40955;SDS011;26687;48.254;11.454;2024-02-26T15:21:48;1.80;;;1.37;;
40955;SDS011;26687;48.254;11.454;2024-02-26T15:24:49;2.23;;;1.37;;
40955;SDS011;26687;48.254;11.454;2024-02-26T15:27:49;1.48;;;1.10;;
40955;SDS011;26687;48.254;11.454;2024-02-26T15:30:49;2.17;;;1.40;;
40955;SDS011;26687;48.254;11.454;2024-02-26T15:33:49;1.47;;;1.23;;
40955;SDS011;26687;48.254;11.454;2024-02-26T15:36:49;1.92;;;1.13;;
40955;SDS011;26687;48.254;11.454;2024-02-26T15:39:49;1.52;;;1.05;;
40955;SDS011;26687;48.254;11.454;2024-02-26T15:42:50;2.53;;;1.20;;
40955;SDS011;26687;48.254;11.454;2024-02-26T15:45:50;1.20;;;0.88;;
40955;SDS011;26687;48.254;11.454;2024-02-26T15:48:50;1.67;;;0.90;;
40955;SDS011;26687;48.254;11.454;2024-02-26T15:51:51;1.90;;;0.77;;
40955;SDS011;26687;48.254;11.454;2024-02-26T15:54:51;1.00;;;0.80;;
40955;SDS011;26687;48.254;11.454;2024-02-26T15:57:52;2.63;;;1.20;;
40955;SDS011;26687;48.254;11.454;2024-02-26T16:00:52;3.78;;;1.30;;
40955;SDS011;26687;48.254;11.454;2024-02-26T16:03:53;2.17;;;1.70;;
40955;SDS011;26687;48.254;11.454;2024-02-26T16:06:55;2.28;;;1.02;;
40955;SDS011;26687;48.254;11.454;2024-02-26T16:09:56;2.30;;;1.00;;
40955;SDS011;26687;48.254;11.454;2024-02-26T16:12:59;1.10;;;0.75;;
40955;SDS011;26687;48.254;11.454;2024-02-26T16:16:04;2.00;;;0.75;;
40955;SDS011;26687;48.254;11.454;2024-02-26T16:19:06;1.88;;;1.20;;
40955;SDS011;26687;48.254;11.454;2024-02-26T16:22:08;5.03;;;3.17;;
40955;SDS011;26687;48.254;11.454;2024-02-26T16:25:08;10.43;;;7.57;;
40955;SDS011;26687;48.254;11.454;2024-02-26T16:28:08;13.88;;;9.75;;
40955;SDS011;26687;48.254;11.454;2024-02-26T16:31:08;4.65;;;2.70;;
40955;SDS011;26687;48.254;11.454;2024-02-26T16:34:08;7.97;;;5.15;;
40955;SDS011;26687;48.254;11.454;2024-02-26T16:37:09;13.20;;;7.40;;
40955;SDS011;26687;48.254;11.454;2024-02-26T16:40:11;11.07;;;6.15;;
40955;SDS011;26687;48.254;11.454;2024-02-26T16:43:12;7.95;;;4.60;;
40955;SDS011;26687;48.254;11.454;2024-02-26T16:46:12;14.52;;;8.60;;
40955;SDS011;26687;48.254;11.454;2024-02-26T16:49:15;19.10;;;10.13;;
40955;SDS011;26687;48.254;11.454;2024-02-26T16:52:15;8.52;;;4.60;;
40955;SDS011;26687;48.254;11.454;2024-02-26T16:55:15;18.90;;;9.93;;
40955;SDS011;26687;48.254;11.454;2024-02-26T16:58:15;9.77;;;5.53;;
40955;SDS011;26687;48.254;11.454;2024-02-26T17:01:15;6.17;;;3.67;;
40955;SDS011;26687;48.254;11.454;2024-02-26T17:04:16;10.60;;;7.03;;
40955;SDS011;26687;48.254;11.454;2024-02-26T17:07:16;8.80;;;5.33;;
40955;SDS011;26687;48.254;11.454;2024-02-26T17:10:16;13.05;;;6.80;;
40955;SDS011;26687;48.254;11.454;2024-02-26T17:13:16;14.30;;;9.70;;
40955;SDS011;26687;48.254;11.454;2024-02-26T17:16:18;6.65;;;4.82;;
40955;SDS011;26687;48.254;11.454;2024-02-26T17:19:18;7.53;;;5.50;;
40955;SDS011;26687;48.254;11.454;2024-02-26T17:22:18;7.40;;;5.72;;
40955;SDS011;26687;48.254;11.454;2024-02-26T17:25:18;6.95;;;4.07;;
40955;SDS011;26687;48.254;11.454;2024-02-26T17:28:19;3.97;;;2.22;;
40955;SDS011;26687;48.254;11.454;2024-02-26T17:31:19;4.22;;;2.78;;
40955;SDS011;26687;48.254;11.454;2024-02-26T17:34:20;3.83;;;3.03;;
40955;SDS011;26687;48.254;11.454;2024-02-26T17:37:20;2.45;;;1.80;;
40955;SDS011;26687;48.254;11.454;2024-02-26T17:40:20;2.03;;;1.45;;
40955;SDS011;26687;48.254;11.454;2024-02-26T17:43:20;2.10;;;1.60;;
40955;SDS011;26687;48.254;11.454;2024-02-26T17:46:20;2.75;;;2.17;;
40955;SDS011;26687;48.254;11.454;2024-02-26T17:49:21;3.53;;;2.72;;